createdAt,value
2023-04-18T00:02:24.779Z,12.60
2023-04-18T00:04:55.361Z,11.05
2023-04-18T00:07:25.986Z,11.35
2023-04-18T00:09:56.289Z,11.30
2023-04-18T00:12:26.847Z,11.30
2023-04-18T00:14:58.856Z,10.80
2023-04-18T00:17:33.017Z,12.13
2023-04-18T00:20:07.323Z,11.07
2023-04-18T00:22:42.616Z,11.15
2023-04-18T00:25:13.943Z,11.45
2023-04-18T00:27:44.917Z,10.82
2023-04-18T00:30:16.631Z,10.98
2023-04-18T00:32:49.710Z,11.48
2023-04-18T00:35:22.518Z,11.52
2023-04-18T00:37:53.076Z,11.18
2023-04-18T00:40:23.714Z,11.32
2023-04-18T00:42:54.201Z,10.10
2023-04-18T00:45:24.903Z,10.65
2023-04-18T00:47:59.133Z,11.43
2023-04-18T00:50:30.131Z,11.10
2023-04-18T00:53:01.502Z,10.77
2023-04-18T00:55:33.208Z,10.60
2023-04-18T00:58:04.569Z,10.90
2023-04-18T01:00:35.130Z,11.27
2023-04-18T01:03:08.693Z,11.43
2023-04-18T01:05:39.981Z,10.35
2023-04-18T01:08:10.996Z,11.15
2023-04-18T01:10:41.551Z,11.32
2023-04-18T01:13:16.804Z,12.00
2023-04-18T01:15:49.333Z,12.10
2023-04-18T01:18:22.692Z,11.02
2023-04-18T01:20:57.207Z,11.50
2023-04-18T01:23:27.621Z,11.40
2023-04-18T01:26:01.146Z,10.73
2023-04-18T01:28:31.561Z,11.77
2023-04-18T01:31:01.996Z,10.45
2023-04-18T01:33:32.638Z,11.48
2023-04-18T01:36:03.159Z,10.32
2023-04-18T01:38:34.775Z,10.63
2023-04-18T01:41:07.991Z,11.13
2023-04-18T01:43:38.460Z,11.52
2023-04-18T01:46:09.050Z,12.23
2023-04-18T01:48:39.782Z,11.80
2023-04-18T01:51:10.831Z,11.50
2023-04-18T01:53:41.935Z,10.95
2023-04-18T01:56:15.717Z,11.07
2023-04-18T01:58:46.133Z,11.68
2023-04-18T02:01:17.031Z,11.93
2023-04-18T02:03:47.822Z,11.93
2023-04-18T02:06:18.410Z,12.43
2023-04-18T02:08:50.533Z,10.85
2023-04-18T02:11:23.815Z,11.05
2023-04-18T02:13:54.289Z,11.73
2023-04-18T02:16:25.139Z,10.80
2023-04-18T02:18:55.684Z,11.85
2023-04-18T02:21:26.128Z,11.55
2023-04-18T02:23:56.893Z,10.75
2023-04-18T02:26:30.050Z,10.70
2023-04-18T02:29:01.575Z,12.07
2023-04-18T02:31:33.353Z,11.52
2023-04-18T02:34:03.956Z,11.57
2023-04-18T02:36:34.381Z,10.82
2023-04-18T02:39:09.352Z,11.55
2023-04-18T02:41:42.357Z,10.93
2023-04-18T02:44:13.362Z,11.93
2023-04-18T02:46:43.887Z,11.13
2023-04-18T02:49:17.097Z,11.60
2023-04-18T02:51:48.517Z,11.45
2023-04-18T02:54:20.304Z,10.00
2023-04-18T02:57:08.023Z,11.48
2023-04-18T02:59:51.124Z,10.75
2023-04-18T03:02:44.354Z,10.68
2023-04-18T03:05:39.945Z,11.05
2023-04-18T03:08:11.236Z,10.30
2023-04-18T03:10:42.315Z,10.40
2023-04-18T03:13:15.564Z,10.43
2023-04-18T03:15:46.911Z,10.55
2023-04-18T03:18:17.656Z,10.25
2023-04-18T03:20:48.214Z,10.32
2023-04-18T03:23:20.138Z,10.82
2023-04-18T03:25:50.610Z,10.45
2023-04-18T03:28:23.808Z,12.73
2023-04-18T03:30:54.268Z,11.05
2023-04-18T03:33:25.283Z,10.05
2023-04-18T03:36:03.493Z,11.45
2023-04-18T03:38:34.341Z,9.75
2023-04-18T03:41:04.767Z,11.45
2023-04-18T03:43:40.687Z,10.98
2023-04-18T03:46:11.175Z,11.13
2023-04-18T03:48:42.119Z,10.15
2023-04-18T03:51:15.076Z,10.70
2023-04-18T03:53:45.497Z,10.68
2023-04-18T03:56:16.156Z,11.48
2023-04-18T03:59:00.981Z,11.45
2023-04-18T04:01:31.586Z,10.48
2023-04-18T04:04:03.229Z,12.88
2023-04-18T04:06:34.532Z,11.27
2023-04-18T04:09:05.343Z,10.68
2023-04-18T04:11:36.626Z,10.93
2023-04-18T04:14:10.799Z,11.05
2023-04-18T04:16:46.483Z,11.07
2023-04-18T04:19:19.920Z,10.25
2023-04-18T04:22:08.361Z,11.75
2023-04-18T04:24:40.587Z,11.27
2023-04-18T04:27:12.685Z,11.25
2023-04-18T04:29:46.599Z,10.77
2023-04-18T04:32:17.532Z,10.45
2023-04-18T04:34:48.147Z,10.52
2023-04-18T04:37:19.029Z,11.35
2023-04-18T04:40:10.345Z,11.15
2023-04-18T04:42:57.067Z,11.50
2023-04-18T04:45:39.913Z,12.00
2023-04-18T04:48:10.636Z,12.77
2023-04-18T04:50:43.662Z,12.35
2023-04-18T04:53:15.489Z,11.52
2023-04-18T04:55:46.487Z,11.80
2023-04-18T04:58:17.683Z,11.80
2023-04-18T05:01:12.623Z,11.52
2023-04-18T05:03:44.402Z,11.45
2023-04-18T05:06:20.619Z,11.93
2023-04-18T05:08:51.187Z,11.85
2023-04-18T05:11:21.829Z,11.43
2023-04-18T05:13:52.274Z,12.23
2023-04-18T05:16:25.410Z,11.55
2023-04-18T05:18:55.830Z,11.88
2023-04-18T05:21:27.664Z,12.45
2023-04-18T05:23:58.729Z,12.55
2023-04-18T05:26:29.176Z,11.43
2023-04-18T05:28:59.561Z,12.13
2023-04-18T05:31:32.627Z,13.45
2023-04-18T05:34:03.098Z,12.27
2023-04-18T05:36:33.521Z,12.05
2023-04-18T05:39:04.366Z,13.65
2023-04-18T05:41:34.691Z,14.15
2023-04-18T05:44:05.925Z,16.67
2023-04-18T05:46:39.183Z,16.00
2023-04-18T05:49:09.754Z,14.80
2023-04-18T05:51:40.550Z,16.27
2023-04-18T05:54:10.955Z,14.85
2023-04-18T05:56:43.547Z,13.13
2023-04-18T05:59:14.176Z,11.75
2023-04-18T06:01:47.179Z,11.90
2023-04-18T06:04:18.091Z,13.73
2023-04-18T06:06:48.790Z,13.73
2023-04-18T06:09:19.288Z,12.65
2023-04-18T06:11:49.712Z,12.25
2023-04-18T06:14:20.083Z,12.25
2023-04-18T06:16:53.187Z,13.98
2023-04-18T06:19:23.499Z,12.45
2023-04-18T06:21:55.552Z,13.00
2023-04-18T06:24:26.032Z,16.23
2023-04-18T06:26:57.496Z,13.43
2023-04-18T06:29:30.561Z,11.88
2023-04-18T06:32:03.595Z,12.25
2023-04-18T06:34:33.993Z,11.52
2023-04-18T06:37:05.288Z,11.27
2023-04-18T06:39:35.647Z,11.85
2023-04-18T06:42:06.281Z,12.07
2023-04-18T06:44:37.042Z,12.32
2023-04-18T06:47:10.300Z,11.13
2023-04-18T06:49:40.676Z,12.00
2023-04-18T06:52:11.211Z,11.82
2023-04-18T06:54:41.788Z,12.05
2023-04-18T06:57:12.515Z,11.55
2023-04-18T06:59:43.564Z,11.23
2023-04-18T07:02:16.581Z,11.85
2023-04-18T07:04:47.522Z,11.07
2023-04-18T07:07:17.895Z,12.18
2023-04-18T07:09:48.320Z,10.55
2023-04-18T07:12:18.973Z,12.45
2023-04-18T07:14:49.848Z,11.98
2023-04-18T07:17:22.921Z,12.38
2023-04-18T07:19:53.431Z,12.77
2023-04-18T07:22:23.970Z,12.52
2023-04-18T07:24:54.472Z,11.82
2023-04-18T07:27:24.821Z,11.93
2023-04-18T07:29:55.220Z,11.52
2023-04-18T07:32:28.390Z,12.15
2023-04-18T07:34:59.530Z,12.40
2023-04-18T07:37:29.972Z,11.68
2023-04-18T07:40:00.614Z,12.27
2023-04-18T07:42:31.313Z,12.70
2023-04-18T07:45:01.873Z,12.23
2023-04-18T07:47:35.071Z,12.07
2023-04-18T07:50:06.103Z,12.70
2023-04-18T07:52:38.179Z,11.95
2023-04-18T07:55:11.488Z,14.07
2023-04-18T07:57:41.892Z,11.02
2023-04-18T08:00:15.235Z,12.38
2023-04-18T08:02:48.383Z,12.77
2023-04-18T08:05:19.192Z,11.27
2023-04-18T08:07:49.698Z,12.55
2023-04-18T08:10:23.191Z,11.60
2023-04-18T08:12:54.092Z,11.77
2023-04-18T08:15:24.701Z,11.45
2023-04-18T08:17:57.760Z,12.95
2023-04-18T08:20:28.472Z,12.18
2023-04-18T08:23:07.459Z,11.70
2023-04-18T08:25:39.450Z,13.18
2023-04-18T08:28:10.073Z,22.90
2023-04-18T08:30:40.812Z,14.02
2023-04-18T08:33:13.910Z,12.55
2023-04-18T08:35:44.542Z,12.27
2023-04-18T08:38:14.927Z,12.00
2023-04-18T08:40:46.699Z,12.73
2023-04-18T08:43:18.151Z,11.95
2023-04-18T08:45:48.812Z,11.25
2023-04-18T08:48:23.367Z,11.57
2023-04-18T08:50:59.900Z,12.55
2023-04-18T08:53:32.875Z,11.60
2023-04-18T08:56:03.439Z,12.27
2023-04-18T08:58:34.455Z,12.00
2023-04-18T09:01:04.978Z,11.95
2023-04-18T09:03:45.535Z,14.25
2023-04-18T09:06:20.454Z,13.75
2023-04-18T09:09:00.404Z,12.38
2023-04-18T09:11:34.548Z,12.68
2023-04-18T09:14:05.069Z,13.60
2023-04-18T09:16:50.734Z,11.65
2023-04-18T09:19:23.948Z,12.32
2023-04-18T09:22:02.084Z,12.68
2023-04-18T09:24:34.607Z,12.13
2023-04-18T09:27:05.138Z,12.30
2023-04-18T09:29:50.094Z,13.00
2023-04-18T09:32:27.365Z,12.73
2023-04-18T09:35:04.880Z,10.60
2023-04-18T09:37:35.700Z,11.23
2023-04-18T09:40:20.859Z,11.25
2023-04-18T09:42:51.772Z,11.93
2023-04-18T09:45:22.341Z,11.55
2023-04-18T09:47:53.653Z,11.00
2023-04-18T09:50:26.734Z,19.23
2023-04-18T09:52:58.543Z,12.23
2023-04-18T09:55:29.576Z,10.20
2023-04-18T09:58:02.629Z,10.13
2023-04-18T10:00:35.190Z,11.63
2023-04-18T10:03:11.006Z,11.48
2023-04-18T10:05:45.975Z,10.43
2023-04-18T10:10:47.665Z,11.23
2023-04-18T10:13:18.406Z,10.30
2023-04-18T10:15:52.124Z,10.40
2023-04-18T10:18:27.088Z,9.95
2023-04-18T10:21:08.342Z,9.90
2023-04-18T10:23:41.497Z,10.15
2023-04-18T10:26:12.556Z,10.35
2023-04-18T10:28:59.607Z,10.68
2023-04-18T10:31:31.913Z,9.63
2023-04-18T10:34:05.924Z,9.52
2023-04-18T10:36:39.551Z,8.68
2023-04-18T10:39:26.350Z,8.57
2023-04-18T10:41:56.783Z,8.68
2023-04-18T10:44:27.742Z,9.40
2023-04-18T10:47:34.157Z,9.70
2023-04-18T10:50:07.055Z,9.15
2023-04-18T10:52:40.436Z,7.95
2023-04-18T10:55:20.585Z,7.85
2023-04-18T10:57:56.162Z,7.95
2023-04-18T11:00:27.023Z,8.32
2023-04-18T11:03:00.484Z,7.57
2023-04-18T11:05:32.080Z,10.63
2023-04-18T11:08:05.078Z,7.35
2023-04-18T11:10:35.517Z,9.85
2023-04-18T11:13:09.000Z,8.00
2023-04-18T11:15:40.227Z,6.95
2023-04-18T11:18:12.790Z,7.07
2023-04-18T11:20:50.209Z,5.78
2023-04-18T11:23:25.657Z,7.15
2023-04-18T11:25:58.752Z,6.45
2023-04-18T11:28:29.884Z,7.75
2023-04-18T11:31:03.006Z,6.63
2023-04-18T11:33:33.593Z,6.53
2023-04-18T11:36:04.260Z,5.97
2023-04-18T11:38:37.290Z,6.20
2023-04-18T11:41:07.954Z,7.07
2023-04-18T11:43:38.389Z,6.13
2023-04-18T11:46:09.021Z,7.10
2023-04-18T11:48:39.743Z,7.85
2023-04-18T11:51:31.408Z,7.57
2023-04-18T11:54:04.529Z,8.15
2023-04-18T11:56:36.663Z,8.65
2023-04-18T11:59:12.500Z,8.05
2023-04-18T12:01:43.377Z,8.82
2023-04-18T12:04:14.528Z,8.23
2023-04-18T12:06:52.537Z,7.80
2023-04-18T12:09:27.367Z,7.45
2023-04-18T12:12:02.969Z,7.47
2023-04-18T12:14:33.883Z,6.65
2023-04-18T12:17:07.013Z,7.28
2023-04-18T12:19:37.450Z,6.40
2023-04-18T12:22:09.594Z,6.03
2023-04-18T12:24:43.502Z,5.60
2023-04-18T12:27:14.222Z,4.97
2023-04-18T12:29:44.736Z,5.40
2023-04-18T12:32:15.248Z,5.38
2023-04-18T12:34:45.656Z,4.78
2023-04-18T12:37:16.100Z,4.90
2023-04-18T12:39:49.077Z,4.70
2023-04-18T12:42:19.592Z,4.65
2023-04-18T12:44:50.048Z,4.30
2023-04-18T12:47:20.466Z,9.00
2023-04-18T12:49:50.937Z,4.50
2023-04-18T12:52:21.484Z,4.47
2023-04-18T12:54:56.480Z,4.30
2023-04-18T12:57:28.036Z,4.60
2023-04-18T12:59:59.431Z,5.07
2023-04-18T13:02:30.596Z,4.78
2023-04-18T13:05:01.274Z,4.53
2023-04-18T13:07:31.958Z,4.28
2023-04-18T13:10:04.984Z,4.22
2023-04-18T13:12:35.649Z,4.07
2023-04-18T13:15:06.999Z,4.10
2023-04-18T13:17:39.077Z,3.97
2023-04-18T13:20:13.188Z,4.07
2023-04-18T13:22:45.112Z,5.93
2023-04-18T13:25:18.350Z,4.35
2023-04-18T13:27:50.413Z,3.60
2023-04-18T13:30:21.322Z,3.97
2023-04-18T13:32:51.978Z,3.55
2023-04-18T13:35:22.767Z,3.72
2023-04-18T13:37:53.496Z,3.63
2023-04-18T13:40:26.658Z,4.10
2023-04-18T13:42:57.380Z,3.45
2023-04-18T13:45:27.835Z,4.03
2023-04-18T13:47:58.367Z,3.97
2023-04-18T13:50:28.895Z,3.72
2023-04-18T13:52:59.485Z,3.80
2023-04-18T13:55:32.733Z,3.30
2023-04-18T13:58:03.337Z,3.60
2023-04-18T14:00:34.025Z,3.38
2023-04-18T14:03:05.145Z,6.47
2023-04-18T14:05:36.166Z,4.00
2023-04-18T14:08:06.818Z,3.88
2023-04-18T14:10:40.076Z,3.97
2023-04-18T14:13:10.501Z,6.20
2023-04-18T14:15:40.897Z,8.13
2023-04-18T14:18:11.599Z,5.72
2023-04-18T14:20:42.041Z,4.30
2023-04-18T14:23:12.539Z,5.65
2023-04-18T14:25:46.136Z,5.00
2023-04-18T14:28:17.584Z,3.67
2023-04-18T14:30:48.073Z,5.05
2023-04-18T14:33:18.589Z,3.53
2023-04-18T14:35:48.986Z,3.63
2023-04-18T14:38:19.417Z,4.20
2023-04-18T14:40:52.468Z,3.40
2023-04-18T14:43:22.904Z,3.60
2023-04-18T14:45:53.550Z,3.47
2023-04-18T14:48:24.062Z,3.20
2023-04-18T14:50:59.771Z,3.58
2023-04-18T14:53:30.199Z,3.45
2023-04-18T14:56:03.280Z,3.40
2023-04-18T14:58:33.725Z,3.47
2023-04-18T15:01:04.252Z,3.72
2023-04-18T15:03:35.456Z,3.85
2023-04-18T15:06:06.076Z,3.70
2023-04-18T15:08:36.922Z,3.45
2023-04-18T15:11:11.862Z,4.43
2023-04-18T15:13:42.843Z,4.40
2023-04-18T15:16:13.373Z,3.72
2023-04-18T15:18:45.233Z,3.47
2023-04-18T15:21:15.695Z,4.20
2023-04-18T15:23:46.220Z,4.28
2023-04-18T15:26:19.186Z,3.83
2023-04-18T15:28:49.807Z,4.53
2023-04-18T15:31:20.262Z,4.43
2023-04-18T15:33:50.663Z,4.82
2023-04-18T15:36:21.049Z,4.82
2023-04-18T15:38:51.683Z,4.88
2023-04-18T15:41:24.746Z,4.40
2023-04-18T15:43:56.197Z,5.10
2023-04-18T15:46:26.571Z,4.80
2023-04-18T15:48:57.115Z,4.78
2023-04-18T15:51:30.520Z,4.30
2023-04-18T15:54:01.074Z,3.90
2023-04-18T15:56:36.773Z,4.45
2023-04-18T15:59:11.188Z,5.03
2023-04-18T16:01:43.249Z,4.20
2023-04-18T16:04:15.460Z,3.88
2023-04-18T16:06:46.107Z,4.00
2023-04-18T16:09:16.507Z,4.60
2023-04-18T16:11:49.494Z,4.45
2023-04-18T16:14:19.953Z,4.22
2023-04-18T16:16:50.416Z,4.85
2023-04-18T16:19:21.113Z,3.85
2023-04-18T16:21:51.788Z,4.53
2023-04-18T16:24:22.227Z,4.82
2023-04-18T16:26:55.772Z,4.80
2023-04-18T16:29:26.286Z,4.10
2023-04-18T16:31:56.679Z,4.70
2023-04-18T16:34:27.134Z,4.65
2023-04-18T16:36:57.876Z,5.25
2023-04-18T16:39:28.339Z,4.30
2023-04-18T16:42:01.612Z,5.70
2023-04-18T16:44:33.354Z,10.13
2023-04-18T16:47:05.192Z,9.73
2023-04-18T16:49:35.941Z,6.65
2023-04-18T16:52:06.611Z,8.65
2023-04-18T16:54:37.091Z,5.78
2023-04-18T16:57:10.127Z,6.38
2023-04-18T16:59:41.931Z,5.32
2023-04-18T17:02:12.827Z,6.65
2023-04-18T17:04:43.451Z,4.80
2023-04-18T17:07:13.917Z,4.82
2023-04-18T17:09:44.388Z,9.25
2023-04-18T17:12:17.407Z,5.25
2023-04-18T17:14:47.801Z,5.72
2023-04-18T17:17:18.553Z,4.65
2023-04-18T17:19:49.259Z,4.63
2023-04-18T17:22:19.670Z,5.05
2023-04-18T17:24:50.123Z,5.40
2023-04-18T17:27:23.154Z,4.93
2023-04-18T17:29:53.614Z,4.85
2023-04-18T17:32:24.338Z,4.95
2023-04-18T17:34:56.396Z,5.35
2023-04-18T17:37:27.467Z,4.88
2023-04-18T17:39:58.543Z,5.07
2023-04-18T17:42:31.606Z,5.30
2023-04-18T17:45:04.386Z,4.97
2023-04-18T17:47:34.838Z,4.85
2023-04-18T17:50:05.816Z,5.22
2023-04-18T17:52:36.455Z,4.93
2023-04-18T17:55:07.881Z,5.03
2023-04-18T17:57:41.064Z,7.13
2023-04-18T18:00:14.652Z,6.63
2023-04-18T18:02:45.379Z,6.28
2023-04-18T18:05:16.817Z,6.32
2023-04-18T18:07:50.143Z,6.20
2023-04-18T18:10:23.413Z,6.32
2023-04-18T18:12:56.860Z,7.05
2023-04-18T18:15:28.570Z,7.90
2023-04-18T18:17:59.308Z,7.30
2023-04-18T18:20:30.947Z,7.55
2023-04-18T18:23:02.959Z,6.70
2023-04-18T18:25:36.575Z,6.47
2023-04-18T18:28:10.013Z,6.15
2023-04-18T18:30:40.591Z,7.20
2023-04-18T18:33:11.063Z,7.57
2023-04-18T18:35:41.716Z,7.15
2023-04-18T18:38:12.196Z,6.88
2023-04-18T18:40:42.737Z,7.20
2023-04-18T18:43:15.846Z,6.15
2023-04-18T18:45:46.236Z,6.97
2023-04-18T18:48:16.699Z,7.93
2023-04-18T18:50:48.297Z,6.95
2023-04-18T18:53:19.476Z,6.10
2023-04-18T18:55:49.820Z,8.15
2023-04-18T18:58:22.880Z,6.95
2023-04-18T19:00:54.796Z,7.30
2023-04-18T19:03:26.162Z,7.40
2023-04-18T19:05:56.863Z,6.50
2023-04-18T19:08:27.258Z,6.25
2023-04-18T19:10:57.666Z,6.75
2023-04-18T19:13:30.702Z,6.60
2023-04-18T19:16:01.571Z,6.85
2023-04-18T19:18:32.002Z,6.75
2023-04-18T19:21:02.397Z,6.45
2023-04-18T19:23:32.940Z,8.02
2023-04-18T19:26:03.478Z,6.80
2023-04-18T19:28:36.508Z,10.15
2023-04-18T19:31:07.062Z,6.47
2023-04-18T19:33:37.836Z,5.97
2023-04-18T19:36:08.852Z,6.95
2023-04-18T19:38:39.263Z,6.35
2023-04-18T19:41:09.642Z,6.78
2023-04-18T19:43:42.881Z,6.32
2023-04-18T19:46:13.383Z,7.22
2023-04-18T19:48:43.937Z,7.53
2023-04-18T19:51:14.356Z,7.15
2023-04-18T19:53:44.910Z,7.70
2023-04-18T19:56:15.440Z,6.97
2023-04-18T19:58:49.251Z,7.28
2023-04-18T20:01:22.577Z,7.25
2023-04-18T20:03:54.222Z,7.47
2023-04-18T20:06:25.304Z,7.75
2023-04-18T20:08:56.304Z,7.55
2023-04-18T20:11:28.222Z,7.47
2023-04-18T20:14:01.354Z,7.30
2023-04-18T20:16:32.934Z,7.03
2023-04-18T20:19:04.204Z,7.97
2023-04-18T20:21:35.034Z,17.65
2023-04-18T20:24:05.772Z,7.68
2023-04-18T20:26:36.352Z,7.07
2023-04-18T20:29:09.403Z,7.32
2023-04-18T20:31:42.465Z,7.97
2023-04-18T20:34:12.979Z,7.05
2023-04-18T20:36:44.011Z,7.93
2023-04-18T20:39:15.742Z,7.10
2023-04-18T20:41:47.311Z,7.70
2023-04-18T20:44:22.330Z,9.05
2023-04-18T20:46:53.608Z,7.45
2023-04-18T20:49:23.988Z,7.72
2023-04-18T20:51:54.504Z,7.10
2023-04-18T20:54:25.169Z,7.85
2023-04-18T20:56:55.566Z,7.55
2023-04-18T20:59:28.589Z,6.95
2023-04-18T21:01:59.052Z,6.75
2023-04-18T21:04:30.435Z,8.55
2023-04-18T21:07:00.852Z,7.22
2023-04-18T21:09:36.458Z,7.10
2023-04-18T21:12:07.754Z,7.07
2023-04-18T21:14:40.685Z,7.10
2023-04-18T21:17:17.206Z,6.90
2023-04-18T21:19:48.488Z,7.22
2023-04-18T21:22:20.050Z,6.72
2023-04-18T21:24:50.995Z,6.47
2023-04-18T21:27:21.486Z,9.25
2023-04-18T21:29:54.755Z,7.40
2023-04-18T21:32:25.329Z,6.93
2023-04-18T21:34:56.659Z,7.30
2023-04-18T21:37:27.847Z,7.45
2023-04-18T21:39:58.435Z,7.00
2023-04-18T21:42:28.837Z,7.28
2023-04-18T21:45:01.845Z,8.00
2023-04-18T21:47:32.458Z,7.85
2023-04-18T21:50:03.146Z,7.63
2023-04-18T21:52:33.646Z,8.05
2023-04-18T21:55:05.135Z,8.18
2023-04-18T21:57:35.604Z,8.20
2023-04-18T22:00:13.095Z,8.20
2023-04-18T22:02:43.977Z,8.30
2023-04-18T22:05:14.589Z,9.63
2023-04-18T22:07:56.939Z,10.00
2023-04-18T22:10:28.920Z,8.95
2023-04-18T22:13:00.349Z,7.80
2023-04-18T22:15:33.638Z,8.02
2023-04-18T22:18:05.441Z,7.82
2023-04-18T22:20:36.379Z,8.40
2023-04-18T22:23:07.387Z,7.63
2023-04-18T22:25:38.200Z,8.80
2023-04-18T22:28:08.751Z,8.38
2023-04-18T22:30:41.959Z,7.50
2023-04-18T22:33:12.449Z,8.48
2023-04-18T22:35:42.948Z,8.35
2023-04-18T22:38:13.303Z,8.70
2023-04-18T22:40:43.956Z,8.77
2023-04-18T22:43:14.482Z,8.90
2023-04-18T22:45:48.835Z,8.60
2023-04-18T22:48:19.359Z,8.52
2023-04-18T22:50:50.123Z,8.00
2023-04-18T22:53:20.580Z,9.10
2023-04-18T22:55:51.131Z,7.70
2023-04-18T22:58:21.749Z,8.77
2023-04-18T23:00:54.821Z,8.60
2023-04-18T23:03:25.269Z,8.27
2023-04-18T23:05:56.120Z,9.23
2023-04-18T23:08:26.526Z,8.40
2023-04-18T23:10:57.101Z,9.30
2023-04-18T23:13:27.760Z,8.77
2023-04-18T23:16:00.797Z,9.20
2023-04-18T23:18:32.732Z,9.40
2023-04-18T23:21:03.673Z,8.80
2023-04-18T23:23:34.216Z,9.00
2023-04-18T23:26:04.666Z,10.15
2023-04-18T23:28:35.940Z,8.82
2023-04-18T23:31:09.883Z,10.13
2023-04-18T23:33:40.409Z,8.80
2023-04-18T23:36:11.906Z,9.23
2023-04-18T23:38:43.620Z,9.38
2023-04-18T23:41:14.034Z,9.43
2023-04-18T23:43:44.697Z,9.52
2023-04-18T23:46:18.197Z,10.57
2023-04-18T23:48:48.858Z,9.48
2023-04-18T23:51:19.467Z,9.07
2023-04-18T23:53:50.129Z,10.15
2023-04-18T23:56:20.625Z,10.10
2023-04-18T23:58:51.019Z,9.85
